Time;durP1;ratioP1;P1;durP2;ratioP2;P2;SDS_P1;SDS_P2;PMS_P1;PMS_P2;Temp;Humidity;BMP_temperature;BMP_pressure;BME280_temperature;BME280_humidity;BME280_pressure;Samples;Min_cycle;Max_cycle;Signal;HPM_P1;HPM_P2
2021/08/03 00:00:10;;;;;;;1.08;0.57;;;;;;;13.43;83.62;96462.69;5085662;28;20036;-76
2021/08/03 00:02:44;;;;;;;0.35;0.35;;;;;;;13.45;84.03;96466.66;5080381;28;20472;-76
2021/08/03 00:05:19;;;;;;;1.05;0.60;;;;;;;13.46;83.94;96464.81;5083936;28;20032;-77
2021/08/03 00:07:50;;;;;;;0.60;0.45;;;;;;;13.46;84.10;96455.13;5077906;28;20046;-76
2021/08/03 00:10:18;;;;;;;0.47;0.47;;;;;;;13.49;83.96;96453.84;5066817;28;20399;-76
2021/08/03 00:12:53;;;;;;;0.50;0.50;;;;;;;13.50;84.90;96452.78;5068540;28;20039;-76
2021/08/03 00:15:22;;;;;;;1.20;0.50;;;;;;;13.50;84.47;96448.34;5075699;28;20031;-76
2021/08/03 00:17:55;;;;;;;1.25;0.50;;;;;;;13.50;84.74;96443.06;5085393;28;20044;-76
2021/08/03 00:20:24;;;;;;;1.33;0.40;;;;;;;13.53;84.44;96441.78;5085309;28;20028;-76
2021/08/03 00:22:56;;;;;;;1.17;0.50;;;;;;;13.53;84.93;96442.59;5085142;28;20047;-76
2021/08/03 00:25:26;;;;;;;0.50;0.50;;;;;;;13.52;84.81;96441.00;5068729;28;20400;-76
2021/08/03 00:27:54;;;;;;;2.50;0.40;;;;;;;13.54;84.80;96435.47;5072648;28;20055;-76
2021/08/03 00:30:24;;;;;;;0.45;0.43;;;;;;;13.56;84.94;96436.03;5063369;28;20040;-76
2021/08/03 00:32:53;;;;;;;0.43;0.40;;;;;;;13.55;84.97;96443.16;5065470;28;20370;-76
2021/08/03 00:35:22;;;;;;;0.40;0.40;;;;;;;13.54;85.00;96438.94;5088195;28;20020;-76
2021/08/03 00:37:50;;;;;;;0.45;0.45;;;;;;;13.54;85.00;96438.94;5086418;28;20063;-76
2021/08/03 00:40:19;;;;;;;0.80;0.40;;;;;;;13.54;85.21;96436.28;5084971;28;20040;-76
2021/08/03 00:42:47;;;;;;;0.52;0.50;;;;;;;13.52;85.21;96434.91;5081293;28;20044;-76
2021/08/03 00:45:14;;;;;;;0.77;0.40;;;;;;;13.50;85.19;96435.16;5090676;28;20028;-76
2021/08/03 00:47:41;;;;;;;0.50;0.50;;;;;;;13.48;85.26;96434.59;5090132;28;20039;-77
2021/08/03 00:50:09;;;;;;;0.50;0.50;;;;;;;13.46;85.39;96430.59;5082674;28;20048;-76
2021/08/03 00:52:37;;;;;;;1.58;0.52;;;;;;;13.45;85.58;96442.16;5065394;28;20493;-76
2021/08/03 00:55:05;;;;;;;0.50;0.50;;;;;;;13.44;85.46;96440.56;5088750;28;20495;-76
2021/08/03 00:57:33;;;;;;;;;;;;;;;13.40;85.91;96435.78;5085515;28;20025;-76
2021/08/03 01:00:00;;;;;;;;;;;;;;;13.38;85.80;96443.09;5093225;28;19969;-76
2021/08/03 01:02:27;;;;;;;;;;;;;;;13.35;86.13;96437.50;5086462;28;19968;-76
2021/08/03 01:04:53;;;;;;;;;;;;;;;13.34;86.49;96444.63;5080524;28;19944;-76
2021/08/03 01:07:20;;;;;;;;;;;;;;;13.34;86.38;96449.88;5067824;28;20413;-76
2021/08/03 01:09:50;;;;;;;;;;;;;;;13.33;86.40;96445.66;5069199;28;19962;-76
2021/08/03 01:12:36;;;;;;;;;;;;;;;13.32;86.66;96441.41;5070040;28;19952;-78
2021/08/03 01:15:06;;;;;;;;;;;;;;;13.31;86.65;96445.09;5079624;28;19963;-77
2021/08/03 01:17:39;;;;;;;;;;;;;;;13.30;86.92;96448.75;5062500;28;19985;-77
2021/08/03 01:20:09;;;;;;;;;;;;;;;13.29;86.91;96438.44;5061808;28;19965;-76
2021/08/03 01:22:36;;;;;;;;;;;;;;;13.29;87.00;96434.00;5068031;28;19986;-76
2021/08/03 01:25:11;;;;;;;;;;;;;;;13.27;86.84;96441.31;5066348;28;20446;-76
2021/08/03 01:27:40;;;;;;;;;;;;;;;13.29;86.96;96446.34;5077355;28;19977;-76
2021/08/03 01:30:08;;;;;;;;;;;;;;;13.27;86.83;96448.38;5084857;28;19963;-76
2021/08/03 01:32:41;;;;;;;;;;;;;;;13.26;87.10;96438.91;5083736;28;20421;-76
2021/08/03 01:35:08;;;;;;;;;;;;;;;13.26;86.99;96450.22;5066834;28;19980;-76
2021/08/03 01:37:35;;;;;;;;;;;;;;;13.24;87.07;96454.13;5088379;28;20003;-76
2021/08/03 01:40:05;;;;;;;;;;;;;;;13.23;86.91;96444.63;5083844;28;19963;-76
2021/08/03 01:42:36;;;;;;;;;;;;;;;13.24;87.25;96443.59;5084536;28;20323;-76
2021/08/03 01:45:04;;;;;;;;;;;;;;;13.26;87.04;96442.31;5085163;28;20000;-76
2021/08/03 01:47:31;;;;;;;;;;;;;;;13.27;87.29;96430.75;5084794;28;19994;-76
2021/08/03 01:50:00;;;;;;;;;;;;;;;13.28;87.86;96421.81;5091346;28;19985;-77
2021/08/03 01:52:28;;;;;;;;;;;;;;;13.29;87.74;96433.19;5083932;28;20000;-76
2021/08/03 01:54:55;;;;;;;;;;;;;;;13.30;87.04;96429.53;5079148;28;20045;-76
2021/08/03 01:57:23;;;;;;;;;;;;;;;13.30;87.18;96434.78;5031351;28;19970;-76
2021/08/03 01:59:52;;;;;;;;;;;;;;;13.31;87.24;96433.75;5090238;28;19970;-76
2021/08/03 02:02:20;;;;;;;;;;;;;;;13.31;87.33;96425.84;5064605;28;19971;-76
2021/08/03 02:04:47;;;;;;;;;;;;;;;13.30;87.48;96426.88;5084045;28;19970;-76
2021/08/03 02:07:15;;;;;;;;;;;;;;;13.28;87.20;96419.19;5086004;28;19999;-76
2021/08/03 02:09:44;;;;;;;;;;;;;;;13.26;87.31;96431.00;5063294;28;19984;-77
2021/08/03 02:12:11;;;;;;;;;;;;;;;13.24;87.30;96417.25;5085678;28;20361;-76
2021/08/03 02:14:44;;;;;;;;;;;;;;;13.24;87.73;96414.63;5085728;28;20356;-76
2021/08/03 02:17:18;;;;;;;;;;;;;;;13.21;87.29;96413.28;5082607;28;19960;-76
2021/08/03 02:19:46;;;;;;;;;;;;;;;13.19;87.71;96413.50;5083927;28;19975;-76
2021/08/03 02:22:13;;;;;;;;;;;;;;;13.18;87.54;96416.34;5081419;28;19969;-77
2021/08/03 02:24:41;;;;;;;;;;;;;;;13.16;87.43;96416.59;5085185;28;20397;-76
2021/08/03 02:27:08;;;;;;;;;;;;;;;13.14;87.14;96409.97;5085834;28;19968;-76
2021/08/03 02:29:37;;;;;;;;;;;;;;;13.12;87.32;96409.41;5083740;28;19964;-76
2021/08/03 02:32:12;;;;;;;;;;;;;;;13.11;86.94;96402.53;5082173;28;20336;-76
2021/08/03 02:34:39;;;;;;;;;;;;;;;13.09;86.80;96394.88;5063227;28;19975;-77
2021/08/03 02:37:11;;;;;;;;;;;;;;;13.09;86.73;96394.88;5065861;28;19964;-76
2021/08/03 02:39:39;;;;;;;;;;;;;;;13.07;86.61;96385.63;5084521;28;20344;-76
2021/08/03 02:42:07;;;;;;;;;;;;;;;13.06;86.43;96398.00;5073441;28;19971;-76
2021/08/03 02:44:36;;;;;;;;;;;;;;;13.05;86.32;96391.09;5079596;28;20344;-76
2021/08/03 02:47:17;;;;;;;;;;;;;;;13.04;86.10;96392.16;5062592;28;19965;-76
2021/08/03 02:49:48;;;;;;;;;;;;;;;13.01;86.59;96376.81;5084783;28;19992;-76
2021/08/03 02:52:16;;;;;;;;;;;;;;;13.02;86.54;96391.59;5063517;28;19972;-76
2021/08/03 02:54:45;;;;;;;;;;;;;;;13.02;86.56;96390.78;5076684;28;19976;-76
2021/08/03 02:57:13;;;;;;;;;;;;;;;13.00;86.52;96380.50;5064413;28;20008;-76
2021/08/03 02:59:42;;;;;;;;;;;;;;;13.00;86.56;96383.13;5059070;28;19985;-76
2021/08/03 03:02:11;;;;;;;;;;;;;;;12.98;86.28;96386.00;5088831;28;19967;-76
2021/08/03 03:04:47;;;;;;;;;;;;;;;12.97;86.40;96383.56;5068077;28;19965;-76
2021/08/03 03:07:17;;;;;;;;;;;;;;;12.97;86.42;96386.22;5086993;28;20369;-76
2021/08/03 03:09:45;;;;;;;;;;;;;;;12.96;86.15;96382.00;5078395;28;19968;-76
2021/08/03 03:12:12;;;;;;;;;;;;;;;12.93;85.87;96377.97;5064668;28;19971;-76
2021/08/03 03:14:41;;;;;;;;;;;;;;;12.91;86.08;96381.88;5082789;28;19972;-76
2021/08/03 03:17:08;;;;;;;;;;;;;;;12.89;85.62;96378.69;5071162;28;19971;-76
2021/08/03 03:19:37;;;;;;;;;;;;;;;12.87;85.28;96381.56;5083417;28;19988;-76
2021/08/03 03:22:05;;;;;;;;;;;;;;;12.84;85.37;96376.75;5081920;28;19969;-76
2021/08/03 03:24:33;;;;;;;;;;;;;;;12.84;85.11;96386.50;5079220;28;20028;-76
2021/08/03 03:27:01;;;;;;;;;;;;;;;12.80;84.96;96375.63;5082768;28;20595;-76
2021/08/03 03:29:28;;;;;;;;;;;;;;;12.79;85.14;96385.34;5087881;28;20429;-76
2021/08/03 03:31:55;;;;;;;;;;;;;;;12.75;85.75;96375.53;5084812;28;19968;-76
2021/08/03 03:34:24;;;;;;;;;;;;;;;12.73;85.55;96370.50;5077138;28;19965;-76
2021/08/03 03:36:52;;;;;;;;;;;;;;;12.69;85.50;96364.09;5087850;28;19965;-76
2021/08/03 03:39:20;;;;;;;;;;;;;;;12.64;85.29;96369.28;5083273;28;20466;-76
2021/08/03 03:41:49;;;;;;;;;;;;;;;12.61;85.23;96361.81;5080447;28;19972;-76
2021/08/03 03:44:16;;;;;;;;;;;;;;;12.60;85.45;96368.13;5084296;28;19968;-76
2021/08/03 03:46:48;;;;;;;;;;;;;;;12.59;85.79;96363.91;5079350;28;19972;-76
2021/08/03 03:49:18;;;;;;;;;;;;;;;12.57;85.65;96361.50;5081905;28;19988;-76
2021/08/03 03:51:45;;;;;;;;;;;;;;;12.55;85.87;96363.56;5061840;28;19976;-76
2021/08/03 03:54:16;;;;;;;;;;;;;;;12.55;85.57;96363.56;5060850;28;19973;-76
2021/08/03 03:56:47;;;;;;;;;;;;;;;12.55;85.46;96358.28;5084218;28;19971;-76
2021/08/03 03:59:16;;;;;;;;;;;;;;;12.56;85.39;96359.13;5088860;28;19985;-76
2021/08/03 04:01:43;;;;;;;;;;;;;;;12.57;85.59;96361.50;5082673;28;19971;-76
2021/08/03 04:04:11;;;;;;;;;;;;;;;12.59;85.52;96358.63;5048885;28;19980;-76
2021/08/03 04:06:39;;;;;;;;;;;;;;;12.58;85.45;96352.59;5083259;28;20439;-76
2021/08/03 04:09:16;;;;;;;;;;;;;;;12.61;85.41;96355.78;5065204;28;19965;-76
2021/08/03 04:11:44;;;;;;;;;;;;;;;12.58;85.51;96349.94;5083373;28;19965;-76
2021/08/03 04:14:13;;;;;;;;;;;;;;;12.59;85.63;96350.75;5084672;28;19964;-76
2021/08/03 04:16:41;;;;;;;;;;;;;;;12.59;85.75;96348.09;5064617;28;19984;-76
2021/08/03 04:19:08;;;;;;;;;;;;;;;12.60;85.84;96355.00;5077069;28;19988;-76
2021/08/03 04:21:35;;;;;;;;;;;;;;;12.58;85.57;96357.84;5082272;28;19969;-76
2021/08/03 04:24:02;;;;;;;;;;;;;;;12.59;85.82;96353.38;5084653;28;19965;-76
2021/08/03 04:26:29;;;;;;;;;;;;;;;12.58;85.87;96360.47;5070084;28;19965;-76
2021/08/03 04:28:56;;;;;;;;;;;;;;;12.59;85.80;96367.31;5082596;28;19965;-76
2021/08/03 04:31:23;;;;;;;;;;;;;;;12.59;85.89;96353.38;5064241;28;19969;-76
2021/08/03 04:33:51;;;;;;;;;;;;;;;12.59;86.10;96364.69;5064566;28;19969;-76
2021/08/03 04:36:18;;;;;;;;;;;;;;;12.61;86.21;96363.66;5062101;28;20431;-76
2021/08/03 04:38:45;;;;;;;;;;;;;;;12.59;86.28;96361.25;5063936;28;19981;-76
2021/08/03 04:41:12;;;;;;;;;;;;;;;12.59;86.39;96358.63;5088836;28;20317;-76
2021/08/03 04:43:41;;;;;;;;;;;;;;;12.59;86.14;96359.44;5084333;28;19972;-76
2021/08/03 04:46:09;;;;;;;;;;;;;;;12.60;86.34;96355.00;5082386;28;19990;-76
2021/08/03 04:48:36;;;;;;;;;;;;;;;12.61;86.19;96353.16;5063235;28;19969;-76
2021/08/03 04:51:04;;;;;;;;;;;;;;;12.62;86.99;96357.38;5087327;28;19992;-76
2021/08/03 04:53:31;;;;;;;;;;;;;;;12.62;86.66;96357.38;5068285;28;20340;-76
2021/08/03 04:55:58;;;;;;;;;;;;;;;12.65;87.42;96362.19;5082602;28;19969;-76
2021/08/03 04:58:25;;;;;;;;;;;;;;;12.65;87.03;96359.53;5082763;28;19976;-76
2021/08/03 05:00:52;;;;;;;;;;;;;;;12.66;87.21;96356.69;5084084;28;19969;-76
2021/08/03 05:03:19;;;;;;;;;;;;;;;12.66;87.23;96359.31;5092723;28;19976;-77
2021/08/03 05:05:46;;;;;;;;;;;;;;;12.68;87.21;96351.16;5080597;28;19967;-76
2021/08/03 05:08:13;;;;;;;;;;;;;;;12.69;87.22;96350.94;5067377;28;20429;-76
2021/08/03 05:10:40;;;;;;;;;;;;;;;12.70;87.50;96349.09;5086486;28;19961;-76
2021/08/03 05:13:07;;;;;;;;;;;;;;;12.71;87.57;96343.63;5069753;28;19967;-76
2021/08/03 05:15:34;;;;;;;;;;;;;;;12.71;87.37;96348.88;5068078;28;20447;-76
2021/08/03 05:18:01;;;;;;;;;;;;;;;12.70;86.78;96344.63;5061918;28;19969;-76
2021/08/03 05:20:28;;;;;;;;;;;;;;;12.69;87.01;96342.25;5086160;28;20332;-76
2021/08/03 05:22:55;;;;;;;;;;;;;;;12.70;87.41;96338.59;5070768;28;19976;-76
2021/08/03 05:25:22;;;;;;;;;;;;;;;12.67;87.33;96339.06;5088333;28;19973;-76
2021/08/03 05:27:50;;;;;;;;;;;;;;;12.68;87.48;96344.09;5083975;28;19979;-76
2021/08/03 05:30:17;;;;;;;;;;;;;;;12.70;87.66;96343.84;5084017;28;19976;-76
2021/08/03 05:32:44;;;;;;;;;;;;;;;12.72;87.54;96331.25;5091320;28;19976;-76
2021/08/03 05:35:12;;;;;;;;;;;;;;;12.72;87.14;96331.25;5088960;28;19968;-76
2021/08/03 05:37:40;;;;;;;;;;;;;;;12.70;87.38;96336.75;5066399;28;19968;-76
2021/08/03 05:40:09;;;;;;;;;;;;;;;12.75;88.04;96336.84;5083027;28;19985;-76
2021/08/03 05:42:36;;;;;;;;;;;;;;;12.82;87.77;96338.56;5072837;28;19972;-76
2021/08/03 05:45:04;;;;;;;;;;;;;;;12.87;87.54;96336.81;5086934;28;19961;-76
2021/08/03 05:47:31;;;;;;;;;;;;;;;12.94;87.00;96340.09;5086242;28;19988;-76
2021/08/03 05:49:58;;;;;;;;;;;;;;;12.97;87.93;96344.09;5086854;28;19999;-76
2021/08/03 05:52:25;;;;;;;;;;;;;;;13.02;86.36;96335.50;5080251;28;19968;-76
2021/08/03 05:54:52;;;;;;;;;;;;;;;13.07;87.11;96333.75;5080352;28;20022;-77
2021/08/03 05:57:18;;;;;;;;;;;;;;;13.28;85.22;96340.19;5085263;28;19968;-76
2021/08/03 05:59:45;;;;;;;;;;;;;;;13.51;85.55;96347.19;5085018;28;19985;-76
2021/08/03 06:02:12;;;;;;;;;;;;;;;13.58;84.45;96342.53;5088607;28;19968;-76
2021/08/03 06:04:39;;;;;;;;;;;;;;;13.67;83.34;96345.59;5084904;28;19960;-76
2021/08/03 06:07:08;;;;;;;;;;;;;;;13.69;82.03;96347.97;5079576;28;19968;-76
2021/08/03 06:09:36;;;;;;;;;;;;;;;13.72;82.60;96344.88;5085573;28;19964;-76
2021/08/03 06:12:04;;;;;;;;;;;;;;;13.71;81.86;96341.44;5090967;28;19976;-76
2021/08/03 06:14:34;;;;;;;;;;;;;;;13.80;83.26;96345.25;5087816;28;19971;-77
2021/08/03 06:17:07;;;;;;;;;;;;;;;14.00;81.52;96343.97;5074791;28;19975;-75
2021/08/03 06:19:40;;;;;;;;;;;;;;;14.17;80.23;96351.84;5062389;28;19996;-75
2021/08/03 06:22:08;;;;;;;;;;;;;;;14.32;79.11;96348.63;5088736;28;19965;-75
2021/08/03 06:24:36;;;;;;;;;;;;;;;14.34;79.43;96343.91;5067267;28;19965;-76
2021/08/03 06:27:03;;;;;;;;;;;;;;;14.40;77.37;96351.66;5083808;28;19971;-75
2021/08/03 06:29:30;;;;;;;;;;;;;;;14.56;78.50;96355.28;5087598;28;19968;-76
2021/08/03 06:31:58;;;;;;;;;;;;;;;14.87;79.63;96354.88;5089009;28;19963;-76
2021/08/03 06:34:25;;;;;;;;;;;;;;;15.11;77.23;96350.09;5084474;28;19960;-76
2021/08/03 06:36:52;;;;;;;;;;;;;;;15.18;78.81;96348.88;5084148;28;19976;-76
2021/08/03 06:39:19;;;;;;;;;;;;;;;15.21;76.81;96344.94;5083744;28;19983;-76
2021/08/03 06:41:47;;;;;;;;;;;;;;;15.19;78.82;96354.94;5084390;28;20334;-76
2021/08/03 06:44:21;;;;;;;;;;;;;;;15.13;78.11;96353.28;5063880;28;19962;-76
2021/08/03 06:46:51;;;;;;;;;;;;;;;15.01;76.92;96354.25;5085387;28;20420;-76
2021/08/03 06:49:19;;;;;;;;;;;;;;;14.93;77.81;96354.69;5077525;28;19988;-75
2021/08/03 06:51:48;;;;;;;;;;;;;;;14.95;77.72;96363.16;5082363;28;20445;-76
2021/08/03 06:54:15;;;;;;;;;;;;;;;15.29;78.82;96360.31;5080815;28;20340;-75
2021/08/03 06:56:44;;;;;;;;;;;;;;;15.83;76.65;96354.19;5089125;28;20325;-76
2021/08/03 06:59:12;;;;;;;;;;;;;;;15.88;74.39;96348.16;5084094;28;19984;-76
2021/08/03 07:01:42;;;;;;;;;;;;;;;15.87;74.36;96350.00;5082092;28;19965;-76
2021/08/03 07:04:11;;;;;;;;;;;;;;;15.87;75.63;96350.00;5084198;28;19965;-76
2021/08/03 07:06:49;;;;;;;;;;;;;;;15.90;74.82;96349.50;5090629;28;19969;-76
2021/08/03 07:09:16;;;;;;;;;;;;;;;15.87;75.17;96349.19;5083052;28;19960;-76
2021/08/03 07:11:43;;;;;;;;;;;;;;;15.81;75.29;96348.34;5081403;28;19976;-76
2021/08/03 07:14:11;;;;;;;;;;;;;;;15.82;75.89;96342.81;5035414;28;19965;-76
2021/08/03 07:16:39;;;;;;;;;;;;;;;15.90;75.90;96344.22;5069425;28;19972;-76
2021/08/03 07:19:07;;;;;;;;;;;;;;;15.88;74.28;96340.22;5048400;28;19981;-76
2021/08/03 07:21:37;;;;;;;;;;;;;;;15.80;74.23;96337.00;5060494;28;19968;-76
2021/08/03 07:24:05;;;;;;;;;;;;;;;15.78;74.95;96333.00;5082871;28;19965;-76
2021/08/03 07:26:31;;;;;;;;;;;;;;;15.77;74.70;96342.78;5084022;28;19968;-76
2021/08/03 07:28:58;;;;;;;;;;;;;;;15.82;75.41;96339.38;5082881;28;19965;-76
2021/08/03 07:31:25;;;;;;;;;;;;;;;15.80;73.94;96341.47;5061041;28;20352;-76
2021/08/03 07:33:52;;;;;;;;;;;;;;;15.87;75.33;96347.34;5086581;28;19979;-76
2021/08/03 07:36:19;;;;;;;;;;;;;;;15.90;73.44;96343.41;5065108;28;19965;-76
2021/08/03 07:38:46;;;;;;;;;;;;;;;15.94;74.31;96345.28;5084059;28;20371;-76
2021/08/03 07:41:13;;;;;;;;;;;;;;;15.93;73.50;96348.19;5080642;28;20842;-76
2021/08/03 07:43:40;;;;;;;;;;;;;;;15.92;73.04;96351.91;5082048;28;19964;-76
2021/08/03 07:46:07;;;;;;;;;;;;;;;15.92;73.61;96354.53;5071605;28;19965;-76
2021/08/03 07:48:34;;;;;;;;;;;;;;;15.93;72.88;96350.84;5084369;28;19968;-76
2021/08/03 07:51:01;;;;;;;;;;;;;;;15.94;74.46;96345.28;5084362;28;20000;-76
2021/08/03 07:53:28;;;;;;;;;;;;;;;15.94;73.26;96342.66;5087038;28;19972;-76
2021/08/03 07:55:55;;;;;;;;;;;;;;;15.94;72.71;96341.84;5085095;28;20328;-76
2021/08/03 07:58:23;;;;;;;;;;;;;;;15.93;74.58;96333.09;5084670;28;19972;-76
2021/08/03 08:00:51;;;;;;;;;;;;;;;15.97;73.86;96342.13;5083298;28;19984;-76
2021/08/03 08:03:17;;;;;;;;;;;;;;;15.97;72.47;96341.34;5084158;28;20405;-76
2021/08/03 08:05:44;;;;;;;;;;;;;;;15.95;73.85;96346.88;5067981;28;19961;-75
2021/08/03 08:08:11;;;;;;;;;;;;;;;15.94;73.96;96350.59;5083343;28;19964;-76
2021/08/03 08:10:38;;;;;;;;;;;;;;;15.97;75.45;96357.22;5082648;28;19969;-75
2021/08/03 08:13:05;;;;;;;;;;;;;;;16.08;76.04;96360.72;5060986;28;19969;-75
2021/08/03 08:15:33;;;;;;;;;;;;;;;16.20;73.92;96356.03;5083378;28;20428;-76
2021/08/03 08:18:00;;;;;;;;;;;;;;;16.29;73.39;96357.13;5082791;28;19975;-76
2021/08/03 08:20:27;;;;;;;;;;;;;;;16.36;73.30;96352.41;5079199;28;19981;-77
2021/08/03 08:22:54;;;;;;;;;;;;;;;16.45;72.68;96358.03;5084614;28;19972;-76
2021/08/03 08:25:21;;;;;;;;;;;;;;;16.54;71.87;96353.03;5089604;28;20316;-76
2021/08/03 08:27:48;;;;;;;;;;;;;;;16.65;72.04;96352.00;5074096;28;19969;-77
2021/08/03 08:30:15;;;;;;;;;;;;;;;16.76;71.57;96356.31;5084493;28;19976;-76
2021/08/03 08:32:43;;;;;;;;;;;;;;;16.94;71.67;96339.16;5087438;28;19973;-76
2021/08/03 08:35:11;;;;;;;;;;;;;;;17.16;74.34;96354.88;5086632;28;19964;-76
2021/08/03 08:37:38;;;;;;;;;;;;;;;17.37;73.02;96342.44;5083361;28;19964;-78
2021/08/03 08:40:06;;;;;;;;;;;;;;;17.51;73.31;96347.22;5089959;28;20047;-76
2021/08/03 08:42:33;;;;;;;;;;;;;;;17.59;71.40;96342.19;5091108;28;20333;-76
2021/08/03 08:45:01;;;;;;;;;;;;;;;17.62;70.89;96340.88;5089708;28;20071;-76
2021/08/03 08:47:28;;;;;;;;;;;;;;;17.62;72.39;96349.63;5082111;28;19964;-76
2021/08/03 08:50:02;;;;;;;;;;;;;;;17.55;69.13;96337.69;5086054;28;19993;-77
2021/08/03 08:52:29;;;;;;;;;;;;;;;17.45;71.61;96354.38;5066443;28;19971;-76
2021/08/03 08:54:56;;;;;;;;;;;;;;;17.36;71.79;96359.38;5082208;28;19973;-76
2021/08/03 08:57:23;;;;;;;;;;;;;;;17.29;73.44;96352.78;5086824;28;19961;-76
2021/08/03 08:59:50;;;;;;;;;;;;;;;17.24;73.29;96357.00;5091748;28;19976;-76
2021/08/03 09:02:36;;;;;;;;;;;;;;;17.19;73.95;96362.28;5084154;28;19964;-76
2021/08/03 09:05:04;;;;;;;;;;;;;;;17.13;73.29;96365.97;5068351;28;19960;-76
2021/08/03 09:07:31;;;;;;;;;;;;;;;17.11;75.79;96372.59;5082452;28;20408;-76
2021/08/03 09:09:58;;;;;;;;;;;;;;;17.08;76.30;96368.63;5083778;28;20351;-77
2021/08/03 09:12:34;;;;;;;;;;;;;;;17.08;76.76;96371.28;5090614;28;19968;-77
2021/08/03 09:15:02;;;;;;;;;;;;;;;17.08;77.46;96373.91;5087770;28;19973;-77
2021/08/03 09:17:29;;;;;;;;;;;;;;;17.10;78.03;96376.31;5088655;28;20321;-77
2021/08/03 09:19:56;;;;;;;;;;;;;;;17.10;77.14;96376.31;5081582;28;19980;-77
2021/08/03 09:22:24;;;;;;;;;;;;;;;17.07;76.41;96380.25;5066236;28;19983;-77
2021/08/03 09:24:52;;;;;;;;;;;;;;;17.04;77.06;96376.28;5065237;28;19988;-78
2021/08/03 09:27:40;;;;;;;;;;;;;;;17.01;77.96;96387.41;5054246;28;19968;-78
2021/08/03 09:30:08;;;;;;;;;;;;;;;16.99;78.95;96384.22;5085541;28;19968;-78
2021/08/03 09:32:36;;;;;;;;;;;;;;;16.99;79.87;96384.22;5066391;28;19971;-78
2021/08/03 09:35:05;;;;;;;;;;;;;;;16.97;80.95;96380.25;5083510;28;19976;-78
2021/08/03 09:37:32;;;;;;;;;;;;;;;16.97;82.20;96382.91;5061993;28;19969;-79
2021/08/03 09:39:58;;;;;;;;;;;;;;;16.97;81.70;96381.03;5069151;28;19984;-78
2021/08/03 09:42:26;;;;;;;;;;;;;;;16.99;81.93;96370.19;5086055;28;19972;-78
2021/08/03 09:44:52;;;;;;;;;;;;;;;16.94;79.97;96376.25;5090354;28;19973;-78
2021/08/03 09:47:19;;;;;;;;;;;;;;;16.93;80.61;96373.88;5091445;28;20018;-78
2021/08/03 09:49:48;;;;;;;;;;;;;;;16.92;80.64;96375.72;5085844;28;20387;-78
2021/08/03 09:52:22;;;;;;;;;;;;;;;16.94;81.61;96376.25;5058929;28;19976;-79
2021/08/03 09:54:48;;;;;;;;;;;;;;;16.96;81.55;96391.91;5068126;28;20422;-78
2021/08/03 09:57:21;;;;;;;;;;;;;;;16.94;81.21;96386.06;5065634;28;20353;-78
2021/08/03 09:59:47;;;;;;;;;;;;;;;16.90;81.83;96390.28;5083013;28;19980;-79
2021/08/03 10:02:17;;;;;;;;;;;;;;;16.82;80.29;96391.59;5086540;28;20372;-79
2021/08/03 10:04:43;;;;;;;;;;;;;;;16.80;80.84;96397.13;5055095;28;19975;-79
2021/08/03 10:07:09;;;;;;;;;;;;;;;16.81;81.95;96396.06;5068852;28;19965;-78
2021/08/03 10:09:37;;;;;;;;;;;;;;;16.83;81.25;96401.13;5084832;28;19991;-77
2021/08/03 10:12:03;;;;;;;;;;;;;;;16.84;81.70;96395.56;5049306;28;19964;-77
2021/08/03 10:14:29;;;;;;;;;;;;;;;16.88;81.79;96398.47;5067516;28;19964;-77
2021/08/03 10:16:55;;;;;;;;;;;;;;;16.89;81.40;96405.38;5061370;28;19972;-78
2021/08/03 10:19:33;;;;;;;;;;;;;;;16.87;79.75;96390.81;5066298;28;19984;-77
2021/08/03 10:21:59;;;;;;;;;;;;;;;16.83;78.43;96395.81;5089203;28;19980;-77
2021/08/03 10:24:30;;;;;;;;;;;;;;;16.76;78.12;96382.78;5065323;28;19961;-77
2021/08/03 10:27:02;;;;;;;;;;;;;;;16.67;78.03;96389.63;5085600;28;19965;-77
2021/08/03 10:29:28;;;;;;;;;;;;;;;16.65;79.54;96391.72;5058960;28;19965;-78
2021/08/03 10:31:54;;;;;;;;;;;;;;;16.62;80.35;96382.44;5085968;28;20023;-78
2021/08/03 10:34:39;;;;;;;;;;;;;;;16.54;81.39;96369.69;5069529;28;20019;-78
2021/08/03 10:37:05;;;;;;;;;;;;;;;16.46;82.69;96358.81;5086435;28;19960;-78
2021/08/03 10:39:47;;;;;;;;;;;;;;;16.38;84.28;96338.94;5066220;28;20207;-77
2021/08/03 10:42:14;;;;;;;;;;;;;;;16.35;84.24;96358.75;5073075;28;19965;-78
2021/08/03 10:44:54;;;;;;;;;;;;;;;16.37;83.55;96361.94;5085348;28;19972;-78
2021/08/03 10:47:32;;;;;;;;;;;;;;;16.38;84.72;96354.81;5050456;28;19967;-78
2021/08/03 10:49:59;;;;;;;;;;;;;;;16.31;80.46;96352.38;5083856;28;20448;-78
2021/08/03 10:52:44;;;;;;;;;;;;;;;16.31;82.74;96346.31;5091192;28;19977;-78
2021/08/03 10:55:28;;;;;;;;;;;;;;;16.37;84.14;96347.91;5065920;28;19965;-78
2021/08/03 10:58:09;;;;;;;;;;;;;;;16.46;86.00;96351.66;5081608;28;20031;-78
2021/08/03 11:00:44;;;;;;;;;;;;;;;16.60;86.00;96339.56;5083512;28;19999;-78
2021/08/03 11:03:38;;;;;;;;;;;;;;;16.72;85.64;96333.25;5062786;28;19960;-78
2021/08/03 11:06:10;;;;;;;;;;;;;;;16.89;85.48;96339.16;5081098;28;19971;-78
2021/08/03 11:08:41;;;;;;;;;;;;;;;17.04;81.82;96330.47;5059732;28;19965;-78
2021/08/03 11:11:10;;;;;;;;;;;;;;;17.28;80.17;96332.63;5061936;28;19965;-77
2021/08/03 11:13:44;;;;;;;;;;;;;;;17.52;77.90;96331.06;5067464;28;19965;-77
2021/08/03 11:16:18;;;;;;;;;;;;;;;17.76;79.63;96327.84;5088152;28;20431;-77
2021/08/03 11:18:46;;;;;;;;;;;;;;;17.93;78.00;96322.31;5066755;28;20383;-77
2021/08/03 11:21:15;;;;;;;;;;;;;;;17.95;77.90;96325.47;5081166;28;19987;-77
2021/08/03 11:23:58;;;;;;;;;;;;;;;17.86;76.18;96330.53;5083498;28;19972;-76
2021/08/03 11:26:26;;;;;;;;;;;;;;;17.62;76.46;96328.41;5076640;28;19971;-76
2021/08/03 11:29:04;;;;;;;;;;;;;;;17.51;77.08;96333.97;5079234;28;19964;-76
2021/08/03 11:31:41;;;;;;;;;;;;;;;17.40;78.95;96333.94;5081033;28;20429;-76
2021/08/03 11:34:07;;;;;;;;;;;;;;;17.24;76.80;96341.09;5090839;28;19964;-76
2021/08/03 11:36:33;;;;;;;;;;;;;;;17.12;79.23;96348.50;5081098;28;19969;-76
2021/08/03 11:38:59;;;;;;;;;;;;;;;17.01;78.98;96358.28;5080367;28;19969;-76
2021/08/03 11:41:26;;;;;;;;;;;;;;;16.95;80.43;96347.94;5082015;28;20353;-75
2021/08/03 11:43:52;;;;;;;;;;;;;;;16.86;81.16;96346.81;5086245;28;19973;-75
2021/08/03 11:46:25;;;;;;;;;;;;;;;16.78;80.54;96346.25;5083701;28;19969;-75
2021/08/03 11:49:01;;;;;;;;;;;;;;;16.71;79.99;96343.03;5077586;28;19975;-76
2021/08/03 11:51:33;;;;;;;;;;;;;;;16.66;76.41;96336.94;5081548;28;20340;-76
2021/08/03 11:54:15;;;;;;;;;;;;;;;16.61;79.87;96329.78;5090262;28;19975;-76
2021/08/03 11:56:41;;;;;;;;;;;;;;;16.62;79.91;96321.56;5077169;28;19965;-76
2021/08/03 11:59:08;;;;;;;;;;;;;;;16.65;81.44;96317.59;5084399;28;19965;-78
2021/08/03 12:01:50;;;;;;;;;;;;;;;16.69;80.64;96309.94;5089849;28;20437;-77
2021/08/03 12:04:18;;;;;;;;;;;;;;;16.71;80.67;96308.59;5092589;28;19968;-77
2021/08/03 12:06:45;;;;;;;;;;;;;;;16.84;81.60;96294.94;5074853;28;19976;-77
2021/08/03 12:09:11;;;;;;;;;;;;;;;17.03;81.58;96281.97;5084886;28;19971;-77
2021/08/03 12:11:37;;;;;;;;;;;;;;;17.18;81.63;96267.16;5090980;28;19975;-77
2021/08/03 12:14:09;;;;;;;;;;;;;;;17.30;75.87;96253.63;5096165;28;20425;-76
2021/08/03 12:16:35;;;;;;;;;;;;;;;17.36;76.48;96260.53;5070956;28;20424;-76
2021/08/03 12:19:01;;;;;;;;;;;;;;;17.44;79.64;96255.47;5087263;28;19968;-76
2021/08/03 12:21:35;;;;;;;;;;;;;;;17.53;77.38;96249.66;5095076;28;20031;-76
2021/08/03 12:24:05;;;;;;;;;;;;;;;17.59;74.91;96241.41;5091086;28;19968;-76
2021/08/03 12:26:31;;;;;;;;;;;;;;;17.62;76.22;96242.75;5088961;28;19965;-78
2021/08/03 12:28:57;;;;;;;;;;;;;;;17.67;76.20;96234.00;5091444;28;19976;-76
2021/08/03 12:31:25;;;;;;;;;;;;;;;17.78;75.04;96244.31;5088863;28;19975;-76
2021/08/03 12:33:51;;;;;;;;;;;;;;;17.85;74.98;96255.47;5087223;28;19965;-76
2021/08/03 12:36:20;;;;;;;;;;;;;;;17.95;74.58;96253.84;5089568;28;20460;-76
2021/08/03 12:39:07;;;;;;;;;;;;;;;18.00;74.24;96264.47;5094377;28;19980;-76
2021/08/03 12:41:33;;;;;;;;;;;;;;;18.12;72.77;96264.16;5087716;28;19984;-76
2021/08/03 12:44:00;;;;;;;;;;;;;;;18.16;73.82;96262.53;5088142;28;20313;-76
2021/08/03 12:46:36;;;;;;;;;;;;;;;18.21;72.89;96262.53;5089310;28;19961;-76
2021/08/03 12:49:03;;;;;;;;;;;;;;;18.31;74.00;96265.16;5067171;28;20432;-76